Metar Aviation Weather Data LIME Il Caravaggio International

6°C Temp
3°C Dewpoint
81% Humidity
Temperature
3 KM/H
2 MPH
2 KTS
340°
North North
West

Wind Speed
Clear
Conditions
Pressure 1021.92 (hPa) - 30.18 (in)
Visibility 5.0 (mi) - 8 (km)

Current Conditions
LIME
Il Caravaggio International
Metar :LIME 192150Z 34002KT 8000 NSC 06/03 Q1022 NOSIG
Tue 19th February 23:50 pm

Il Caravaggio International
  Metar Aviation API Data Provided by https://www.checkwx.com/ PHP scripts by weather34.com ©2019